sensor_id;sensor_type;location;lat;lon;timestamp;pressure;altitude;pressure_sealevel;temperature;humidity
50790;BME280;37287;47.554;7.844;2023-03-14T00:01:13;96523.63;;;8.36;100.00
50790;BME280;37287;47.554;7.844;2023-03-14T00:03:50;96518.22;;;8.36;100.00
50790;BME280;37287;47.554;7.844;2023-03-14T00:06:17;96542.13;;;8.34;100.00
50790;BME280;37287;47.554;7.844;2023-03-14T00:08:44;96547.16;;;8.32;100.00
50790;BME280;37287;47.554;7.844;2023-03-14T00:11:15;96560.22;;;8.33;100.00
50790;BME280;37287;47.554;7.844;2023-03-14T00:13:48;96559.44;;;8.36;100.00
50790;BME280;37287;47.554;7.844;2023-03-14T00:16:25;96575.25;;;8.34;100.00
50790;BME280;37287;47.554;7.844;2023-03-14T00:18:52;96576.84;;;8.24;100.00
50790;BME280;37287;47.554;7.844;2023-03-14T00:21:19;96574.16;;;8.24;100.00
50790;BME280;37287;47.554;7.844;2023-03-14T00:23:47;96571.44;;;8.24;100.00
50790;BME280;37287;47.554;7.844;2023-03-14T00:26:16;96581.44;;;8.24;100.00
50790;BME280;37287;47.554;7.844;2023-03-14T00:28:43;96574.53;;;8.23;100.00
50790;BME280;37287;47.554;7.844;2023-03-14T00:31:12;96557.59;;;8.19;100.00
50790;BME280;37287;47.554;7.844;2023-03-14T00:33:39;96544.53;;;8.17;100.00
50790;BME280;37287;47.554;7.844;2023-03-14T00:36:09;96541.81;;;8.14;100.00
50790;BME280;37287;47.554;7.844;2023-03-14T00:38:39;96538.75;;;8.12;100.00
50790;BME280;37287;47.554;7.844;2023-03-14T00:41:07;96532.97;;;8.09;100.00
50790;BME280;37287;47.554;7.844;2023-03-14T00:43:37;96536.84;;;8.08;100.00
50790;BME280;37287;47.554;7.844;2023-03-14T00:46:08;96534.91;;;8.09;100.00
50790;BME280;37287;47.554;7.844;2023-03-14T00:48:36;96536.47;;;8.06;100.00
50790;BME280;37287;47.554;7.844;2023-03-14T00:51:03;96541.84;;;8.06;100.00
50790;BME280;37287;47.554;7.844;2023-03-14T00:53:36;96547.25;;;8.03;100.00
50790;BME280;37287;47.554;7.844;2023-03-14T00:56:05;96554.97;;;8.01;100.00
50790;BME280;37287;47.554;7.844;2023-03-14T00:58:32;96570.00;;;7.98;100.00
50790;BME280;37287;47.554;7.844;2023-03-14T01:01:06;96575.00;;;7.96;100.00
50790;BME280;37287;47.554;7.844;2023-03-14T01:03:37;96573.06;;;7.93;100.00
50790;BME280;37287;47.554;7.844;2023-03-14T01:06:11;96567.31;;;7.91;100.00
50790;BME280;37287;47.554;7.844;2023-03-14T01:08:38;96567.72;;;7.89;100.00
50790;BME280;37287;47.554;7.844;2023-03-14T01:11:08;96565.41;;;7.88;100.00
50790;BME280;37287;47.554;7.844;2023-03-14T01:13:36;96565.41;;;7.88;100.00
50790;BME280;37287;47.554;7.844;2023-03-14T01:16:04;96556.94;;;7.86;100.00
50790;BME280;37287;47.554;7.844;2023-03-14T01:18:38;96558.09;;;7.85;100.00
50790;BME280;37287;47.554;7.844;2023-03-14T01:21:23;96556.56;;;7.84;100.00
50790;BME280;37287;47.554;7.844;2023-03-14T01:23:53;96566.59;;;7.83;100.00
50790;BME280;37287;47.554;7.844;2023-03-14T01:26:23;96557.72;;;7.83;100.00
50790;BME280;37287;47.554;7.844;2023-03-14T01:28:55;96543.88;;;7.81;100.00
50790;BME280;37287;47.554;7.844;2023-03-14T01:31:23;96533.09;;;7.81;100.00
50790;BME280;37287;47.554;7.844;2023-03-14T01:33:50;96529.22;;;7.82;100.00
50790;BME280;37287;47.554;7.844;2023-03-14T01:36:17;96536.94;;;7.80;100.00
50790;BME280;37287;47.554;7.844;2023-03-14T01:38:46;96546.19;;;7.82;100.00
50790;BME280;37287;47.554;7.844;2023-03-14T01:41:18;96547.34;;;7.81;100.00
50790;BME280;37287;47.554;7.844;2023-03-14T01:43:48;96534.63;;;7.82;100.00
50790;BME280;37287;47.554;7.844;2023-03-14T01:46:21;96535.75;;;7.84;100.00
50790;BME280;37287;47.554;7.844;2023-03-14T01:48:58;96530.78;;;7.83;100.00
50790;BME280;37287;47.554;7.844;2023-03-14T01:51:33;96540.00;;;7.82;100.00
50790;BME280;37287;47.554;7.844;2023-03-14T01:56:33;96526.94;;;7.80;100.00
50790;BME280;37287;47.554;7.844;2023-03-14T01:59:10;96532.69;;;7.79;100.00
50790;BME280;37287;47.554;7.844;2023-03-14T02:01:38;96526.56;;;7.74;100.00
50790;BME280;37287;47.554;7.844;2023-03-14T02:04:07;96522.75;;;7.72;100.00
50790;BME280;37287;47.554;7.844;2023-03-14T02:07:09;96517.75;;;7.67;100.00
50790;BME280;37287;47.554;7.844;2023-03-14T02:09:38;96523.91;;;7.64;100.00
50790;BME280;37287;47.554;7.844;2023-03-14T02:12:09;96517.75;;;7.60;100.00
50790;BME280;37287;47.554;7.844;2023-03-14T02:14:36;96511.97;;;7.57;100.00
50790;BME280;37287;47.554;7.844;2023-03-14T02:17:04;96498.53;;;7.54;100.00
50790;BME280;37287;47.554;7.844;2023-03-14T02:22:21;96471.25;;;7.45;100.00
50790;BME280;37287;47.554;7.844;2023-03-14T02:25:11;96476.25;;;7.43;100.00
50790;BME280;37287;47.554;7.844;2023-03-14T02:27:40;96475.50;;;7.38;100.00
50790;BME280;37287;47.554;7.844;2023-03-14T02:30:12;96472.78;;;7.35;100.00
50790;BME280;37287;47.554;7.844;2023-03-14T02:32:43;96458.56;;;7.31;100.00
50790;BME280;37287;47.554;7.844;2023-03-14T02:35:14;96441.66;;;7.30;100.00
50790;BME280;37287;47.554;7.844;2023-03-14T02:37:49;96445.13;;;7.31;100.00
50790;BME280;37287;47.554;7.844;2023-03-14T02:40:18;96441.28;;;7.32;100.00
50790;BME280;37287;47.554;7.844;2023-03-14T02:42:47;96433.19;;;7.32;100.00
50790;BME280;37287;47.554;7.844;2023-03-14T02:47:56;96424.34;;;7.31;100.00
50790;BME280;37287;47.554;7.844;2023-03-14T02:50:26;96427.06;;;7.31;100.00
50790;BME280;37287;47.554;7.844;2023-03-14T02:52:58;96424.75;;;7.30;100.00
50790;BME280;37287;47.554;7.844;2023-03-14T02:55:25;96421.66;;;7.28;100.00
50790;BME280;37287;47.554;7.844;2023-03-14T02:57:53;96415.53;;;7.27;100.00
50790;BME280;37287;47.554;7.844;2023-03-14T03:00:21;96409.00;;;7.25;100.00
50790;BME280;37287;47.554;7.844;2023-03-14T03:02:50;96399.38;;;7.27;100.00
50790;BME280;37287;47.554;7.844;2023-03-14T03:05:17;96399.38;;;7.27;100.00
50790;BME280;37287;47.554;7.844;2023-03-14T03:07:45;96396.69;;;7.27;100.00
50790;BME280;37287;47.554;7.844;2023-03-14T03:10:12;96388.97;;;7.29;100.00
50790;BME280;37287;47.554;7.844;2023-03-14T03:12:39;96401.69;;;7.29;100.00
50790;BME280;37287;47.554;7.844;2023-03-14T03:15:07;96395.91;;;7.30;100.00
50790;BME280;37287;47.554;7.844;2023-03-14T03:17:37;96393.19;;;7.30;100.00
50790;BME280;37287;47.554;7.844;2023-03-14T03:20:03;96394.34;;;7.29;100.00
50790;BME280;37287;47.554;7.844;2023-03-14T03:22:36;96390.88;;;7.32;100.00
50790;BME280;37287;47.554;7.844;2023-03-14T03:25:05;96381.69;;;7.30;100.00
50790;BME280;37287;47.554;7.844;2023-03-14T03:27:33;96380.91;;;7.29;100.00
50790;BME280;37287;47.554;7.844;2023-03-14T03:30:04;96374.75;;;7.29;100.00
50790;BME280;37287;47.554;7.844;2023-03-14T03:32:31;96368.63;;;7.25;100.00
50790;BME280;37287;47.554;7.844;2023-03-14T03:34:57;96367.84;;;7.24;100.00
50790;BME280;37287;47.554;7.844;2023-03-14T03:37:26;96362.88;;;7.22;100.00
50790;BME280;37287;47.554;7.844;2023-03-14T03:39:54;96362.50;;;7.17;100.00
50790;BME280;37287;47.554;7.844;2023-03-14T03:42:21;96369.00;;;7.19;100.00
50790;BME280;37287;47.554;7.844;2023-03-14T03:44:49;96357.13;;;7.17;100.00
50790;BME280;37287;47.554;7.844;2023-03-14T03:47:16;96348.25;;;7.16;100.00
50790;BME280;37287;47.554;7.844;2023-03-14T03:49:43;96361.75;;;7.13;100.00
50790;BME280;37287;47.554;7.844;2023-03-14T03:52:14;96355.97;;;7.11;100.00
50790;BME280;37287;47.554;7.844;2023-03-14T03:54:40;96358.28;;;7.09;100.00
50790;BME280;37287;47.554;7.844;2023-03-14T03:57:07;96357.53;;;7.04;100.00
50790;BME280;37287;47.554;7.844;2023-03-14T03:59:34;96350.59;;;7.03;100.00
50790;BME280;37287;47.554;7.844;2023-03-14T04:02:02;96339.88;;;7.00;100.00
50790;BME280;37287;47.554;7.844;2023-03-14T04:04:29;96345.63;;;6.95;100.00
50790;BME280;37287;47.554;7.844;2023-03-14T04:06:57;96334.91;;;6.87;100.00
50790;BME280;37287;47.554;7.844;2023-03-14T04:09:24;96338.75;;;6.86;100.00
50790;BME280;37287;47.554;7.844;2023-03-14T04:11:50;96332.63;;;6.79;100.00
50790;BME280;37287;47.554;7.844;2023-03-14T04:14:21;96318.03;;;6.72;100.00
50790;BME280;37287;47.554;7.844;2023-03-14T04:16:48;96311.50;;;6.66;100.00
50790;BME280;37287;47.554;7.844;2023-03-14T04:19:16;96308.81;;;6.63;100.00
50790;BME280;37287;47.554;7.844;2023-03-14T04:21:43;96313.03;;;6.60;100.00
50790;BME280;37287;47.554;7.844;2023-03-14T04:24:13;96290.41;;;6.58;100.00
50790;BME280;37287;47.554;7.844;2023-03-14T04:26:40;96293.06;;;6.61;100.00
50790;BME280;37287;47.554;7.844;2023-03-14T04:29:13;96288.47;;;6.65;100.00
50790;BME280;37287;47.554;7.844;2023-03-14T04:31:40;96288.47;;;6.65;100.00
50790;BME280;37287;47.554;7.844;2023-03-14T04:34:06;96289.59;;;6.64;100.00
50790;BME280;37287;47.554;7.844;2023-03-14T04:36:33;96285.41;;;6.63;100.00
50790;BME280;37287;47.554;7.844;2023-03-14T04:38:59;96285.03;;;6.58;100.00
50790;BME280;37287;47.554;7.844;2023-03-14T04:41:28;96273.50;;;6.57;100.00
50790;BME280;37287;47.554;7.844;2023-03-14T04:44:01;96265.03;;;6.62;100.00
50790;BME280;37287;47.554;7.844;2023-03-14T04:46:28;96263.50;;;6.65;100.00
50790;BME280;37287;47.554;7.844;2023-03-14T04:48:54;96266.56;;;6.63;100.00
50790;BME280;37287;47.554;7.844;2023-03-14T04:51:24;96256.56;;;6.60;100.00
50790;BME280;37287;47.554;7.844;2023-03-14T04:53:54;96255.06;;;6.59;100.00
50790;BME280;37287;47.554;7.844;2023-03-14T04:56:20;96259.66;;;6.62;100.00
50790;BME280;37287;47.554;7.844;2023-03-14T04:58:47;96245.47;;;6.58;100.00
50790;BME280;37287;47.554;7.844;2023-03-14T05:01:14;96244.31;;;6.56;100.00
50790;BME280;37287;47.554;7.844;2023-03-14T05:03:40;96235.84;;;6.57;100.00
50790;BME280;37287;47.554;7.844;2023-03-14T05:06:09;96227.41;;;6.51;100.00
50790;BME280;37287;47.554;7.844;2023-03-14T05:08:36;96227.44;;;6.48;100.00
50790;BME280;37287;47.554;7.844;2023-03-14T05:11:03;96227.06;;;6.39;100.00
50790;BME280;37287;47.554;7.844;2023-03-14T05:13:31;96212.09;;;6.37;100.00
50790;BME280;37287;47.554;7.844;2023-03-14T05:16:09;96206.34;;;6.35;100.00
50790;BME280;37287;47.554;7.844;2023-03-14T05:18:38;96205.59;;;6.31;100.00
50790;BME280;37287;47.554;7.844;2023-03-14T05:21:05;96201.75;;;6.29;100.00
50790;BME280;37287;47.554;7.844;2023-03-14T05:23:31;96205.25;;;6.22;100.00
50790;BME280;37287;47.554;7.844;2023-03-14T05:25:58;96210.25;;;6.16;100.00
50790;BME280;37287;47.554;7.844;2023-03-14T05:28:24;96203.72;;;6.14;100.00
50790;BME280;37287;47.554;7.844;2023-03-14T05:30:53;96206.78;;;6.12;100.00
50790;BME280;37287;47.554;7.844;2023-03-14T05:33:23;96196.81;;;6.06;100.00
50790;BME280;37287;47.554;7.844;2023-03-14T05:35:50;96196.03;;;5.98;100.00
50790;BME280;37287;47.554;7.844;2023-03-14T05:38:16;96198.34;;;5.96;100.00
50790;BME280;37287;47.554;7.844;2023-03-14T05:40:45;96187.59;;;5.96;100.00
50790;BME280;37287;47.554;7.844;2023-03-14T05:43:13;96182.97;;;5.96;100.00
50790;BME280;37287;47.554;7.844;2023-03-14T05:45:40;96174.16;;;5.99;100.00
50790;BME280;37287;47.554;7.844;2023-03-14T05:48:07;96162.66;;;6.02;100.00
50790;BME280;37287;47.554;7.844;2023-03-14T05:50:34;96150.00;;;6.07;100.00
50790;BME280;37287;47.554;7.844;2023-03-14T05:53:02;96154.63;;;6.02;100.00
50790;BME280;37287;47.554;7.844;2023-03-14T05:55:33;96163.06;;;6.01;100.00
50790;BME280;37287;47.554;7.844;2023-03-14T05:58:00;96157.28;;;5.95;100.00
50790;BME280;37287;47.554;7.844;2023-03-14T06:00:26;96163.81;;;5.94;100.00
50790;BME280;37287;47.554;7.844;2023-03-14T06:02:55;96161.88;;;5.95;100.00
50790;BME280;37287;47.554;7.844;2023-03-14T06:05:23;96161.13;;;5.98;100.00
50790;BME280;37287;47.554;7.844;2023-03-14T06:07:52;96163.03;;;6.05;100.00
50790;BME280;37287;47.554;7.844;2023-03-14T06:10:20;96171.06;;;6.12;100.00
50790;BME280;37287;47.554;7.844;2023-03-14T06:12:47;96181.81;;;6.19;100.00
50790;BME280;37287;47.554;7.844;2023-03-14T06:15:13;96169.13;;;6.27;100.00
50790;BME280;37287;47.554;7.844;2023-03-14T06:17:42;96161.78;;;6.42;100.00
50790;BME280;37287;47.554;7.844;2023-03-14T06:20:09;96162.84;;;6.59;100.00
50790;BME280;37287;47.554;7.844;2023-03-14T06:22:36;96161.66;;;6.70;100.00
50790;BME280;37287;47.554;7.844;2023-03-14T06:25:05;96165.81;;;6.82;100.00
50790;BME280;37287;47.554;7.844;2023-03-14T06:27:32;96176.09;;;7.02;100.00
50790;BME280;37287;47.554;7.844;2023-03-14T06:29:58;96168.63;;;7.31;100.00
50790;BME280;37287;47.554;7.844;2023-03-14T06:32:25;96152.97;;;7.64;100.00
50790;BME280;37287;47.554;7.844;2023-03-14T06:34:51;96167.69;;;7.98;100.00
50790;BME280;37287;47.554;7.844;2023-03-14T06:37:21;96163.88;;;7.91;100.00
50790;BME280;37287;47.554;7.844;2023-03-14T06:39:51;96158.19;;;7.82;100.00
50790;BME280;37287;47.554;7.844;2023-03-14T06:42:18;96155.78;;;7.95;100.00
50790;BME280;37287;47.554;7.844;2023-03-14T06:44:45;96154.13;;;8.05;100.00
50790;BME280;37287;47.554;7.844;2023-03-14T06:47:12;96145.13;;;8.19;100.00
50790;BME280;37287;47.554;7.844;2023-03-14T06:49:39;96141.38;;;8.47;100.00
50790;BME280;37287;47.554;7.844;2023-03-14T06:52:06;96135.16;;;8.50;100.00
50790;BME280;37287;47.554;7.844;2023-03-14T06:54:35;96139.75;;;8.53;100.00
50790;BME280;37287;47.554;7.844;2023-03-14T06:57:03;96139.25;;;8.62;100.00
50790;BME280;37287;47.554;7.844;2023-03-14T06:59:29;96148.53;;;8.61;100.00
50790;BME280;37287;47.554;7.844;2023-03-14T07:01:58;96143.22;;;8.54;100.00
50790;BME280;37287;47.554;7.844;2023-03-14T07:04:24;96134.84;;;8.45;100.00
50790;BME280;37287;47.554;7.844;2023-03-14T07:06:51;96142.94;;;8.41;100.00
50790;BME280;37287;47.554;7.844;2023-03-14T07:09:18;96157.28;;;8.34;100.00
50790;BME280;37287;47.554;7.844;2023-03-14T07:11:47;96153.41;;;8.35;100.00
50790;BME280;37287;47.554;7.844;2023-03-14T07:14:13;96152.94;;;8.44;100.00
50790;BME280;37287;47.554;7.844;2023-03-14T07:16:40;96166.28;;;8.58;100.00
50790;BME280;37287;47.554;7.844;2023-03-14T07:19:07;96162.72;;;8.65;100.00
50790;BME280;37287;47.554;7.844;2023-03-14T07:21:33;96161.06;;;8.75;100.00
50790;BME280;37287;47.554;7.844;2023-03-14T07:24:01;96162.91;;;8.82;100.00
50790;BME280;37287;47.554;7.844;2023-03-14T07:26:28;96171.75;;;8.82;100.00
50790;BME280;37287;47.554;7.844;2023-03-14T07:28:54;96170.91;;;8.89;100.00
50790;BME280;37287;47.554;7.844;2023-03-14T07:31:25;96180.84;;;8.95;100.00
50790;BME280;37287;47.554;7.844;2023-03-14T07:33:54;96188.81;;;9.06;100.00
50790;BME280;37287;47.554;7.844;2023-03-14T07:36:21;96193.28;;;9.17;100.00
50790;BME280;37287;47.554;7.844;2023-03-14T07:38:49;96191.34;;;9.17;100.00
50790;BME280;37287;47.554;7.844;2023-03-14T07:41:16;96199.50;;;9.14;100.00
50790;BME280;37287;47.554;7.844;2023-03-14T07:43:42;96201.50;;;9.09;100.00
50790;BME280;37287;47.554;7.844;2023-03-14T07:46:09;96204.91;;;9.14;100.00
50790;BME280;37287;47.554;7.844;2023-03-14T07:48:35;96210.22;;;9.21;100.00
50790;BME280;37287;47.554;7.844;2023-03-14T07:51:02;96200.38;;;9.34;100.00
50790;BME280;37287;47.554;7.844;2023-03-14T07:53:31;96202.41;;;9.54;100.00
50790;BME280;37287;47.554;7.844;2023-03-14T07:55:59;96212.06;;;9.78;100.00
50790;BME280;37287;47.554;7.844;2023-03-14T07:58:26;96212.28;;;9.88;100.00
50790;BME280;37287;47.554;7.844;2023-03-14T08:00:53;96205.25;;;9.94;100.00
50790;BME280;37287;47.554;7.844;2023-03-14T08:03:19;96215.16;;;10.01;100.00
50790;BME280;37287;47.554;7.844;2023-03-14T08:05:50;96212.75;;;10.06;100.00
50790;BME280;37287;47.554;7.844;2023-03-14T08:08:19;96217.69;;;10.11;100.00
50790;BME280;37287;47.554;7.844;2023-03-14T08:10:46;96220.63;;;10.21;100.00
50790;BME280;37287;47.554;7.844;2023-03-14T08:13:13;96235.34;;;10.20;100.00
50790;BME280;37287;47.554;7.844;2023-03-14T08:15:48;96231.81;;;10.23;100.00
50790;BME280;37287;47.554;7.844;2023-03-14T08:18:15;96238.94;;;10.33;99.79
50790;BME280;37287;47.554;7.844;2023-03-14T08:20:41;96241.22;;;10.38;91.61
50790;BME280;37287;47.554;7.844;2023-03-14T08:23:12;96239.50;;;10.48;89.55
50790;BME280;37287;47.554;7.844;2023-03-14T08:25:39;96251.78;;;10.53;85.27
50790;BME280;37287;47.554;7.844;2023-03-14T08:28:05;96247.41;;;10.59;83.21
50790;BME280;37287;47.554;7.844;2023-03-14T08:30:32;96243.09;;;10.61;82.69
50790;BME280;37287;47.554;7.844;2023-03-14T08:32:59;96250.94;;;10.56;82.78
50790;BME280;37287;47.554;7.844;2023-03-14T08:35:26;96253.44;;;10.46;82.17
50790;BME280;37287;47.554;7.844;2023-03-14T08:37:57;96259.28;;;10.45;84.02
50790;BME280;37287;47.554;7.844;2023-03-14T08:40:24;96253.44;;;10.46;86.34
50790;BME280;37287;47.554;7.844;2023-03-14T08:42:50;96247.94;;;10.50;84.99
50790;BME280;37287;47.554;7.844;2023-03-14T08:45:19;96249.78;;;10.57;84.31
50790;BME280;37287;47.554;7.844;2023-03-14T08:47:46;96249.06;;;10.73;84.38
50790;BME280;37287;47.554;7.844;2023-03-14T08:50:12;96250.00;;;10.66;78.93
50790;BME280;37287;47.554;7.844;2023-03-14T08:52:42;96243.19;;;10.58;78.99
50790;BME280;37287;47.554;7.844;2023-03-14T08:55:09;96250.25;;;10.52;77.62
50790;BME280;37287;47.554;7.844;2023-03-14T08:57:35;96259.56;;;10.51;78.44
50790;BME280;37287;47.554;7.844;2023-03-14T09:00:07;96251.31;;;10.58;79.29
50790;BME280;37287;47.554;7.844;2023-03-14T09:02:37;96266.75;;;10.57;77.53
50790;BME280;37287;47.554;7.844;2023-03-14T09:05:04;96256.91;;;10.67;80.04
50790;BME280;37287;47.554;7.844;2023-03-14T09:07:33;96254.84;;;10.55;76.02
50790;BME280;37287;47.554;7.844;2023-03-14T09:10:00;96259.06;;;10.56;79.17
50790;BME280;37287;47.554;7.844;2023-03-14T09:12:26;96261.91;;;10.48;76.21
50790;BME280;37287;47.554;7.844;2023-03-14T09:14:57;96273.13;;;10.47;78.10
50790;BME280;37287;47.554;7.844;2023-03-14T09:17:24;96273.56;;;10.45;79.41
50790;BME280;37287;47.554;7.844;2023-03-14T09:19:50;96275.13;;;10.43;80.81
50790;BME280;37287;47.554;7.844;2023-03-14T09:22:17;96274.38;;;10.42;81.74
50790;BME280;37287;47.554;7.844;2023-03-14T09:24:44;96275.28;;;10.36;79.03
50790;BME280;37287;47.554;7.844;2023-03-14T09:27:34;96286.72;;;10.43;81.11
50790;BME280;37287;47.554;7.844;2023-03-14T09:30:01;96285.09;;;10.49;81.84
50790;BME280;37287;47.554;7.844;2023-03-14T09:32:27;96288.91;;;10.52;81.01
50790;BME280;37287;47.554;7.844;2023-03-14T09:34:54;96287.53;;;10.40;79.22
50790;BME280;37287;47.554;7.844;2023-03-14T09:37:21;96288.78;;;10.36;78.87
50790;BME280;37287;47.554;7.844;2023-03-14T09:39:47;96296.25;;;10.28;80.97
50790;BME280;37287;47.554;7.844;2023-03-14T09:42:17;96310.66;;;10.21;85.50
50790;BME280;37287;47.554;7.844;2023-03-14T09:45:07;96319.44;;;10.02;86.71
50790;BME280;37287;47.554;7.844;2023-03-14T09:47:37;96327.78;;;9.87;89.42
50790;BME280;37287;47.554;7.844;2023-03-14T09:50:23;96335.69;;;9.74;92.81
50790;BME280;37287;47.554;7.844;2023-03-14T09:52:56;96345.47;;;9.64;94.12
50790;BME280;37287;47.554;7.844;2023-03-14T09:55:24;96346.31;;;9.58;96.11
50790;BME280;37287;47.554;7.844;2023-03-14T09:57:55;96352.22;;;9.49;98.46
50790;BME280;37287;47.554;7.844;2023-03-14T10:00:26;96357.31;;;9.43;100.00
50790;BME280;37287;47.554;7.844;2023-03-14T10:03:09;96359.19;;;9.46;100.00
50790;BME280;37287;47.554;7.844;2023-03-14T10:05:43;96362.66;;;9.47;100.00
50790;BME280;37287;47.554;7.844;2023-03-14T10:08:14;96363.84;;;9.46;100.00
50790;BME280;37287;47.554;7.844;2023-03-14T10:10:41;96367.72;;;9.41;100.00
50790;BME280;37287;47.554;7.844;2023-03-14T10:13:34;96371.72;;;9.33;100.00
50790;BME280;37287;47.554;7.844;2023-03-14T10:16:03;96374.63;;;9.11;100.00
50790;BME280;37287;47.554;7.844;2023-03-14T10:18:35;96379.88;;;8.88;100.00
50790;BME280;37287;47.554;7.844;2023-03-14T10:21:21;96394.44;;;8.56;100.00
50790;BME280;37287;47.554;7.844;2023-03-14T10:24:07;96398.50;;;8.26;100.00
50790;BME280;37287;47.554;7.844;2023-03-14T10:26:36;96400.84;;;8.17;100.00
50790;BME280;37287;47.554;7.844;2023-03-14T10:29:10;96406.34;;;8.06;100.00
50790;BME280;37287;47.554;7.844;2023-03-14T10:31:52;96405.63;;;7.87;100.00
50790;BME280;37287;47.554;7.844;2023-03-14T10:34:30;96416.53;;;7.69;100.00
50790;BME280;37287;47.554;7.844;2023-03-14T10:37:22;96421.59;;;7.53;100.00
50790;BME280;37287;47.554;7.844;2023-03-14T10:39:51;96430.88;;;7.41;100.00
50790;BME280;37287;47.554;7.844;2023-03-14T10:42:30;96432.84;;;7.30;100.00
50790;BME280;37287;47.554;7.844;2023-03-14T10:45:01;96437.84;;;7.24;100.00
50790;BME280;37287;47.554;7.844;2023-03-14T10:47:33;96447.84;;;7.20;100.00
50790;BME280;37287;47.554;7.844;2023-03-14T10:50:23;96454.38;;;7.22;100.00
50790;BME280;37287;47.554;7.844;2023-03-14T10:52:52;96461.69;;;7.15;100.00
50790;BME280;37287;47.554;7.844;2023-03-14T10:55:40;96471.72;;;6.96;100.00
50790;BME280;37287;47.554;7.844;2023-03-14T10:58:27;96469.81;;;6.86;100.00
50790;BME280;37287;47.554;7.844;2023-03-14T11:01:25;96491.31;;;6.79;100.00
50790;BME280;37287;47.554;7.844;2023-03-14T11:07:12;96502.06;;;6.68;100.00
50790;BME280;37287;47.554;7.844;2023-03-14T11:15:13;96543.56;;;6.67;100.00
50790;BME280;37287;47.554;7.844;2023-03-14T11:17:50;96553.91;;;6.61;100.00
50790;BME280;37287;47.554;7.844;2023-03-14T11:26:23;96593.09;;;6.48;100.00
50790;BME280;37287;47.554;7.844;2023-03-14T11:28:58;96596.91;;;6.47;100.00
50790;BME280;37287;47.554;7.844;2023-03-14T11:31:33;96618.78;;;6.49;100.00
50790;BME280;37287;47.554;7.844;2023-03-14T11:34:15;96623.03;;;6.50;100.00
50790;BME280;37287;47.554;7.844;2023-03-14T11:36:52;96631.09;;;6.50;100.00
50790;BME280;37287;47.554;7.844;2023-03-14T11:39:21;96626.50;;;6.54;100.00
50790;BME280;37287;47.554;7.844;2023-03-14T11:41:52;96620.78;;;6.59;100.00
50790;BME280;37287;47.554;7.844;2023-03-14T11:44:27;96638.06;;;6.62;100.00
50790;BME280;37287;47.554;7.844;2023-03-14T11:47:10;96643.09;;;6.81;100.00
50790;BME280;37287;47.554;7.844;2023-03-14T11:49:50;96650.44;;;6.95;100.00
50790;BME280;37287;47.554;7.844;2023-03-14T11:52:37;96654.72;;;7.07;100.00
50790;BME280;37287;47.554;7.844;2023-03-14T11:55:20;96657.03;;;7.16;100.00
50790;BME280;37287;47.554;7.844;2023-03-14T11:57:51;96667.81;;;7.37;100.00
50790;BME280;37287;47.554;7.844;2023-03-14T12:00:22;96672.06;;;7.53;100.00
50790;BME280;37287;47.554;7.844;2023-03-14T12:02:54;96673.97;;;7.49;100.00
50790;BME280;37287;47.554;7.844;2023-03-14T12:05:46;96680.91;;;7.61;100.00
50790;BME280;37287;47.554;7.844;2023-03-14T12:10:59;96692.44;;;7.90;100.00
50790;BME280;37287;47.554;7.844;2023-03-14T12:13:29;96700.91;;;7.81;100.00
50790;BME280;37287;47.554;7.844;2023-03-14T12:16:00;96719.78;;;7.78;100.00
50790;BME280;37287;47.554;7.844;2023-03-14T12:18:35;96710.94;;;7.66;100.00
50790;BME280;37287;47.554;7.844;2023-03-14T12:21:10;96727.44;;;7.65;100.00
50790;BME280;37287;47.554;7.844;2023-03-14T12:23:54;96757.84;;;7.62;100.00
50790;BME280;37287;47.554;7.844;2023-03-14T12:26:27;96753.25;;;7.58;100.00
50790;BME280;37287;47.554;7.844;2023-03-14T12:29:15;96754.78;;;7.52;100.00
50790;BME280;37287;47.554;7.844;2023-03-14T12:31:46;96768.59;;;7.44;100.00
50790;BME280;37287;47.554;7.844;2023-03-14T12:39:31;96813.84;;;7.02;100.00
50790;BME280;37287;47.554;7.844;2023-03-14T12:42:11;96815.69;;;6.87;100.00
50790;BME280;37287;47.554;7.844;2023-03-14T12:44:42;96838.31;;;6.75;98.49
50790;BME280;37287;47.554;7.844;2023-03-14T12:49:48;96882.31;;;6.49;100.00
50790;BME280;37287;47.554;7.844;2023-03-14T12:52:21;96903.19;;;6.22;100.00
50790;BME280;37287;47.554;7.844;2023-03-14T12:57:33;96899.22;;;6.05;100.00
50790;BME280;37287;47.554;7.844;2023-03-14T13:00:17;96913.94;;;6.18;100.00
50790;BME280;37287;47.554;7.844;2023-03-14T13:02:45;96902.50;;;6.28;100.00
50790;BME280;37287;47.554;7.844;2023-03-14T13:05:19;96891.06;;;6.39;100.00
50790;BME280;37287;47.554;7.844;2023-03-14T13:13:26;96893.78;;;6.94;100.00
50790;BME280;37287;47.554;7.844;2023-03-14T13:15:58;96894.59;;;7.02;100.00
50790;BME280;37287;47.554;7.844;2023-03-14T13:21:07;96900.38;;;7.08;100.00
50790;BME280;37287;47.554;7.844;2023-03-14T13:23:38;96892.34;;;7.15;99.90
50790;BME280;37287;47.554;7.844;2023-03-14T13:26:11;96901.25;;;7.22;99.80
50790;BME280;37287;47.554;7.844;2023-03-14T13:28:41;96892.78;;;7.24;97.91
50790;BME280;37287;47.554;7.844;2023-03-14T13:31:19;96907.78;;;7.21;97.81
50790;BME280;37287;47.554;7.844;2023-03-14T13:33:56;96919.31;;;7.22;98.29
50790;BME280;37287;47.554;7.844;2023-03-14T13:36:23;96918.59;;;7.36;97.52
50790;BME280;37287;47.554;7.844;2023-03-14T13:38:59;96920.97;;;7.52;98.03
50790;BME280;37287;47.554;7.844;2023-03-14T13:41:28;96924.91;;;7.65;97.57
50790;BME280;37287;47.554;7.844;2023-03-14T13:44:08;96933.00;;;7.72;94.96
50790;BME280;37287;47.554;7.844;2023-03-14T13:46:36;96930.78;;;7.96;99.05
50790;BME280;37287;47.554;7.844;2023-03-14T13:49:05;96931.94;;;8.09;98.74
50790;BME280;37287;47.554;7.844;2023-03-14T13:51:33;96935.81;;;8.16;99.43
50790;BME280;37287;47.554;7.844;2023-03-14T13:54:00;96946.56;;;8.08;99.98
50790;BME280;37287;47.554;7.844;2023-03-14T13:56:30;96941.94;;;7.98;99.96
50790;BME280;37287;47.554;7.844;2023-03-14T13:58:57;96931.47;;;7.79;99.22
50790;BME280;37287;47.554;7.844;2023-03-14T14:01:24;96939.50;;;7.64;98.19